Time;durP1;ratioP1;P1;durP2;ratioP2;P2;SDS_P1;SDS_P2;PMS_P1;PMS_P2;Temp;Humidity;BMP_temperature;BMP_pressure;BME280_temperature;BME280_humidity;BME280_pressure;Samples;Min_cycle;Max_cycle;Signal;HPM_P1;HPM_P2
2023/11/30 00:01:30;;;;;;;18.23;9.27;;;0.00;99.90;;;;;;5010510;28;20045;-66
2023/11/30 00:03:58;;;;;;;34.53;9.93;;;0.10;99.90;;;;;;5029286;28;20127;-66
2023/11/30 00:06:25;;;;;;;20.90;8.40;;;0.20;99.90;;;;;;5028652;28;20136;-67
2023/11/30 00:08:53;;;;;;;17.95;8.15;;;0.00;99.90;;;;;;5029418;28;20527;-67
2023/11/30 00:11:20;;;;;;;19.80;9.30;;;0.00;99.90;;;;;;5012078;28;20049;-67
2023/11/30 00:13:47;;;;;;;24.40;9.55;;;-0.10;99.90;;;;;;5011295;28;20050;-66
2023/11/30 00:16:13;;;;;;;21.35;8.68;;;0.20;99.90;;;;;;5029507;28;20056;-67
2023/11/30 00:18:51;;;;;;;15.98;8.27;;;-0.10;99.90;;;;;;5029072;28;20705;-67
2023/11/30 00:21:21;;;;;;;19.70;9.23;;;-0.10;99.90;;;;;;5028933;28;20420;-67
2023/11/30 00:23:52;;;;;;;18.95;9.15;;;-0.20;99.90;;;;;;5029073;28;20033;-69
2023/11/30 00:26:19;;;;;;;25.52;9.40;;;-0.20;99.90;;;;;;5033676;28;20050;-68
2023/11/30 00:28:50;;;;;;;21.60;8.73;;;-0.20;99.90;;;;;;5011739;28;20045;-68
2023/11/30 00:31:20;;;;;;;20.80;9.02;;;-0.30;99.90;;;;;;5018433;28;20053;-68
2023/11/30 00:33:47;;;;;;;18.13;7.47;;;-0.30;99.90;;;;;;5027680;28;20038;-66
2023/11/30 00:36:13;;;;;;;16.30;9.25;;;-0.30;99.90;;;;;;5029346;28;20045;-66
2023/11/30 00:38:40;;;;;;;20.17;9.55;;;-0.20;99.90;;;;;;5028376;28;20424;-65
2023/11/30 00:41:12;;;;;;;17.42;8.50;;;-0.20;99.90;;;;;;5028153;28;20099;-66
2023/11/30 00:43:40;;;;;;;20.35;7.72;;;-0.20;99.90;;;;;;4992041;28;20049;-66
2023/11/30 00:46:09;;;;;;;16.15;9.65;;;-0.30;99.90;;;;;;5028677;28;20045;-66
2023/11/30 00:48:36;;;;;;;18.58;8.73;;;-0.30;99.90;;;;;;5000072;28;20095;-66
2023/11/30 00:51:03;;;;;;;16.60;7.72;;;-0.30;99.90;;;;;;5005501;28;20390;-66
2023/11/30 00:53:29;;;;;;;24.02;7.85;;;-0.30;99.90;;;;;;5027615;28;20417;-68
2023/11/30 00:55:56;;;;;;;17.25;8.45;;;-0.30;99.90;;;;;;5029433;28;20496;-67
2023/11/30 00:58:23;;;;;;;19.58;8.80;;;-0.40;99.90;;;;;;5028996;28;20037;-67
2023/11/30 01:00:53;;;;;;;21.30;8.30;;;-0.40;99.90;;;;;;5028617;28;20037;-69
2023/11/30 01:03:22;;;;;;;24.85;8.90;;;-0.40;99.90;;;;;;5028382;28;20099;-67
2023/11/30 01:05:50;;;;;;;17.70;7.38;;;-0.40;99.90;;;;;;4661810;28;10000671;-66
2023/11/30 01:08:16;;;;;;;21.80;9.63;;;-0.40;99.90;;;;;;5007550;28;20073;-67
2023/11/30 01:10:44;;;;;;;18.60;8.27;;;-0.40;99.90;;;;;;5025993;28;20095;-66
2023/11/30 01:13:10;;;;;;;23.23;8.65;;;-0.40;99.90;;;;;;5004247;28;20099;-65
2023/11/30 01:15:37;;;;;;;20.08;7.88;;;-0.40;99.90;;;;;;5027296;28;20054;-65
2023/11/30 01:18:04;;;;;;;19.20;7.65;;;-0.40;99.90;;;;;;5028189;28;20045;-65
2023/11/30 01:20:35;;;;;;;16.70;8.57;;;-0.40;99.90;;;;;;5010361;28;20523;-65
2023/11/30 01:23:02;;;;;;;16.33;7.25;;;-0.40;99.90;;;;;;5027358;28;20052;-65
2023/11/30 01:25:29;;;;;;;15.77;7.07;;;0.20;99.90;;;;;;5027662;28;20441;-65
2023/11/30 01:27:56;;;;;;;19.77;8.38;;;-0.40;99.90;;;;;;5009895;28;20041;-66
2023/11/30 01:30:22;;;;;;;16.17;7.15;;;-0.40;99.90;;;;;;5009907;28;20049;-65
2023/11/30 01:32:49;;;;;;;17.48;7.22;;;-0.50;99.90;;;;;;5027452;28;20041;-65
2023/11/30 01:35:17;;;;;;;18.15;7.47;;;-0.50;99.90;;;;;;5027833;28;20072;-64
2023/11/30 01:37:43;;;;;;;17.20;7.30;;;-0.50;99.90;;;;;;5027412;28;20103;-66
2023/11/30 01:40:11;;;;;;;14.73;7.47;;;-0.50;99.90;;;;;;5026970;28;20049;-66
2023/11/30 01:42:37;;;;;;;15.75;6.78;;;-0.50;99.90;;;;;;5025034;28;20041;-65
2023/11/30 01:45:05;;;;;;;23.95;7.43;;;-0.50;99.90;;;;;;5025120;28;20092;-67
2023/11/30 01:47:31;;;;;;;21.30;8.07;;;-0.50;99.90;;;;;;5027603;28;20053;-66
2023/11/30 01:49:59;;;;;;;23.17;8.02;;;-0.40;99.90;;;;;;4992977;28;20073;-66
2023/11/30 01:52:26;;;;;;;18.80;8.30;;;-0.40;99.90;;;;;;5009725;28;20096;-66
2023/11/30 01:54:53;;;;;;;19.58;7.57;;;-0.40;99.90;;;;;;5009825;28;20057;-67
2023/11/30 01:57:20;;;;;;;15.50;7.22;;;-0.40;99.90;;;;;;5009562;28;20050;-67
2023/11/30 01:59:47;;;;;;;17.30;8.35;;;-0.50;99.90;;;;;;5028148;28;20084;-67
2023/11/30 02:02:15;;;;;;;19.63;7.68;;;-0.60;99.90;;;;;;5024335;28;20049;-67
2023/11/30 02:04:42;;;;;;;18.35;8.02;;;-0.60;99.90;;;;;;5019679;28;20132;-67
2023/11/30 02:07:10;;;;;;;14.10;6.97;;;-0.70;99.90;;;;;;5027537;28;20048;-67
2023/11/30 02:09:36;;;;;;;17.63;6.80;;;0.00;99.90;;;;;;5027926;28;20041;-66
2023/11/30 02:12:03;;;;;;;14.50;7.00;;;-0.70;99.90;;;;;;5012149;28;20100;-65
2023/11/30 02:14:35;;;;;;;21.52;7.90;;;-0.80;99.90;;;;;;5035302;28;20091;-66
2023/11/30 02:17:03;;;;;;;16.42;6.47;;;-0.80;99.90;;;;;;5016282;28;20064;-66
2023/11/30 02:19:29;;;;;;;15.38;8.10;;;-0.80;99.90;;;;;;5011204;28;20048;-63
2023/11/30 02:21:56;;;;;;;12.90;7.30;;;-0.70;99.90;;;;;;5031893;28;20397;-64
2023/11/30 02:24:23;;;;;;;12.80;6.43;;;-0.70;99.90;;;;;;5031665;28;20049;-66
2023/11/30 02:26:50;;;;;;;15.65;7.47;;;-0.70;99.90;;;;;;5032029;28;20538;-64
2023/11/30 02:29:17;;;;;;;13.38;6.72;;;-0.80;99.90;;;;;;5031783;28;20053;-67
2023/11/30 02:31:43;;;;;;;15.10;7.20;;;-0.80;99.90;;;;;;5029680;28;20508;-67
2023/11/30 02:34:10;;;;;;;11.25;6.88;;;-0.90;99.90;;;;;;5031082;28;20049;-66
2023/11/30 02:36:37;;;;;;;14.02;7.32;;;-0.90;99.90;;;;;;5012639;28;20053;-66
2023/11/30 02:39:05;;;;;;;17.20;7.80;;;-0.90;99.90;;;;;;4997123;28;20088;-67
2023/11/30 02:41:31;;;;;;;19.27;7.75;;;-0.90;99.90;;;;;;5030514;28;20068;-66
2023/11/30 02:43:59;;;;;;;19.05;8.02;;;-0.90;99.90;;;;;;5030436;28;20034;-66
2023/11/30 02:46:26;;;;;;;18.40;7.07;;;-0.90;99.90;;;;;;5030391;28;20053;-67
2023/11/30 02:48:53;;;;;;;16.77;8.15;;;-1.00;99.90;;;;;;5030038;28;20452;-66
2023/11/30 02:51:19;;;;;;;19.08;7.00;;;-1.00;99.90;;;;;;5029175;28;20528;-67
2023/11/30 02:53:46;;;;;;;12.02;6.82;;;-1.10;99.90;;;;;;5012217;28;20496;-66
2023/11/30 02:56:13;;;;;;;19.15;7.13;;;-1.00;99.90;;;;;;5030323;28;20049;-66
2023/11/30 02:58:40;;;;;;;13.38;6.85;;;-1.00;99.90;;;;;;5029754;28;20042;-67
2023/11/30 03:01:07;;;;;;;14.07;7.03;;;-1.00;99.90;;;;;;5011943;28;20096;-66
2023/11/30 03:03:34;;;;;;;17.10;7.90;;;-1.00;99.90;;;;;;5025175;28;20057;-66
2023/11/30 03:06:01;;;;;;;14.73;7.43;;;-1.00;99.90;;;;;;4996803;28;20046;-66
2023/11/30 03:08:28;;;;;;;14.40;7.38;;;-1.00;99.90;;;;;;5030375;28;20045;-66
2023/11/30 03:10:54;;;;;;;13.90;7.60;;;-1.00;99.90;;;;;;5012863;28;20092;-66
2023/11/30 03:13:21;;;;;;;14.35;6.65;;;-1.00;99.90;;;;;;5030504;28;20041;-66
2023/11/30 03:15:48;;;;;;;21.95;9.98;;;-1.00;99.90;;;;;;5030422;28;20092;-66
2023/11/30 03:18:21;;;;;;;15.55;7.72;;;-1.00;99.90;;;;;;5029665;28;20057;-67
2023/11/30 03:20:50;;;;;;;11.65;6.75;;;-1.00;99.90;;;;;;5030222;28;20115;-67
2023/11/30 03:23:17;;;;;;;21.92;7.97;;;-1.00;99.90;;;;;;5029890;28;20641;-67
2023/11/30 03:25:44;;;;;;;21.80;7.50;;;-1.10;99.90;;;;;;5012720;28;20046;-67
2023/11/30 03:28:11;;;;;;;14.75;8.30;;;-1.10;99.90;;;;;;5012358;28;20107;-66
2023/11/30 03:30:37;;;;;;;17.23;7.18;;;-1.10;99.90;;;;;;5029682;28;20045;-66
2023/11/30 03:33:04;;;;;;;14.48;7.32;;;-1.10;99.90;;;;;;5029574;28;20467;-67
2023/11/30 03:35:31;;;;;;;17.48;7.05;;;-1.20;99.90;;;;;;5029679;28;20069;-64
2023/11/30 03:37:58;;;;;;;14.98;7.35;;;-1.30;99.90;;;;;;5029959;28;20056;-67
2023/11/30 03:40:25;;;;;;;13.18;6.90;;;-1.30;99.90;;;;;;5029847;28;20042;-69
2023/11/30 03:42:51;;;;;;;19.10;7.70;;;-1.30;99.90;;;;;;5030362;28;20052;-66
2023/11/30 03:45:18;;;;;;;17.52;7.63;;;-1.30;99.90;;;;;;5029185;28;20045;-66
2023/11/30 03:47:45;;;;;;;17.13;7.20;;;-1.30;99.90;;;;;;5030351;28;20436;-67
2023/11/30 03:50:12;;;;;;;19.95;7.10;;;-1.30;99.90;;;;;;5028936;28;20140;-66
2023/11/30 03:52:39;;;;;;;17.23;7.60;;;-1.30;99.90;;;;;;5027619;28;20110;-66
2023/11/30 03:55:07;;;;;;;15.25;7.13;;;-1.30;99.90;;;;;;5029242;28;20045;-66
2023/11/30 03:57:33;;;;;;;16.20;7.22;;;-1.30;99.90;;;;;;5011230;28;20038;-66
2023/11/30 04:00:00;;;;;;;15.63;6.80;;;-1.30;99.90;;;;;;5011468;28;20111;-66
2023/11/30 04:02:27;;;;;;;14.98;7.78;;;-1.30;99.90;;;;;;5029506;28;20499;-65
2023/11/30 04:04:54;;;;;;;18.60;8.05;;;-1.20;99.90;;;;;;5010033;28;20065;-66
2023/11/30 04:07:22;;;;;;;16.80;8.07;;;-1.30;99.90;;;;;;5027615;28;20572;-66
2023/11/30 04:09:48;;;;;;;26.08;8.43;;;-1.30;99.90;;;;;;5029603;28;20038;-66
2023/11/30 04:12:15;;;;;;;19.85;10.13;;;-1.20;99.90;;;;;;5005779;28;20115;-65
2023/11/30 04:14:42;;;;;;;19.23;7.50;;;-1.30;99.90;;;;;;5020930;28;20405;-66
2023/11/30 04:17:10;;;;;;;14.95;7.20;;;-1.30;99.90;;;;;;5025977;28;20135;-66
2023/11/30 04:19:37;;;;;;;21.42;8.02;;;-1.30;99.90;;;;;;5030159;28;20132;-66
2023/11/30 04:22:03;;;;;;;20.70;7.85;;;-1.40;99.90;;;;;;5029730;28;20056;-67
2023/11/30 04:24:30;;;;;;;15.32;7.53;;;-1.40;99.90;;;;;;5029941;28;20045;-67
2023/11/30 04:26:57;;;;;;;20.55;8.30;;;-1.40;99.90;;;;;;5030464;28;20077;-66
2023/11/30 04:29:24;;;;;;;18.65;7.18;;;-1.40;99.90;;;;;;5030121;28;20056;-66
2023/11/30 04:31:51;;;;;;;16.30;6.72;;;-1.40;99.90;;;;;;5011243;28;20049;-67
2023/11/30 04:34:18;;;;;;;21.27;7.30;;;-1.40;99.90;;;;;;5028509;28;20115;-65
2023/11/30 04:36:45;;;;;;;17.15;7.57;;;-1.40;99.90;;;;;;5013490;28;20058;-66
2023/11/30 04:39:12;;;;;;;15.25;8.05;;;-1.50;99.90;;;;;;5014704;28;20038;-66
2023/11/30 04:41:39;;;;;;;18.35;6.60;;;-1.50;99.90;;;;;;5010393;28;20045;-65
2023/11/30 04:44:06;;;;;;;16.42;7.43;;;-1.50;99.90;;;;;;5028248;28;20045;-68
2023/11/30 04:46:33;;;;;;;13.18;6.53;;;-1.50;99.90;;;;;;5028694;28;20065;-66
2023/11/30 04:49:00;;;;;;;15.50;7.38;;;-1.50;99.90;;;;;;5028238;28;20037;-65
2023/11/30 04:51:27;;;;;;;19.05;7.75;;;-1.60;99.90;;;;;;5004282;28;20057;-65
2023/11/30 04:53:54;;;;;;;17.10;8.30;;;-1.60;99.90;;;;;;5027637;28;20061;-65
2023/11/30 04:56:20;;;;;;;15.68;7.30;;;-1.60;99.90;;;;;;5028166;28;20077;-67
2023/11/30 04:58:47;;;;;;;16.80;7.35;;;-1.60;99.90;;;;;;5028512;28;20053;-67
2023/11/30 05:01:14;;;;;;;17.00;8.05;;;-1.60;99.90;;;;;;5028452;28;20479;-67
2023/11/30 05:03:41;;;;;;;15.88;6.72;;;-1.30;99.90;;;;;;5028256;28;20049;-67
2023/11/30 05:06:08;;;;;;;18.85;7.78;;;-1.70;99.90;;;;;;5016239;28;20065;-68
2023/11/30 05:08:35;;;;;;;17.73;6.78;;;-1.70;99.90;;;;;;5028253;28;20034;-67
2023/11/30 05:11:02;;;;;;;17.25;7.18;;;-1.80;99.90;;;;;;5011816;28;20053;-67
2023/11/30 05:13:29;;;;;;;22.48;8.20;;;-1.70;99.90;;;;;;5010124;28;20041;-67
2023/11/30 05:15:55;;;;;;;21.08;7.50;;;-1.70;99.90;;;;;;5028246;28;20056;-65
2023/11/30 05:18:22;;;;;;;16.00;7.35;;;-1.70;99.90;;;;;;5027734;28;20079;-67
2023/11/30 05:20:49;;;;;;;12.50;7.47;;;-1.70;99.90;;;;;;5028313;28;20120;-67
2023/11/30 05:23:16;;;;;;;20.85;7.97;;;-1.60;99.90;;;;;;5026801;28;20088;-68
2023/11/30 05:25:43;;;;;;;15.85;7.68;;;-1.70;99.90;;;;;;5028846;28;20072;-66
2023/11/30 05:28:10;;;;;;;20.98;7.72;;;-1.50;99.90;;;;;;5028592;28;20076;-66
2023/11/30 05:30:37;;;;;;;21.15;7.53;;;-1.80;99.90;;;;;;5010411;28;20037;-66
2023/11/30 05:33:04;;;;;;;13.80;7.47;;;-1.80;99.90;;;;;;5027259;28;20515;-66
2023/11/30 05:35:31;;;;;;;14.52;6.97;;;-1.80;99.90;;;;;;5027422;28;20053;-66
2023/11/30 05:37:58;;;;;;;11.93;6.80;;;-1.70;99.90;;;;;;5009635;28;20046;-65
2023/11/30 05:40:24;;;;;;;13.10;6.70;;;-1.70;99.90;;;;;;5011397;28;20041;-66
2023/11/30 05:42:51;;;;;;;14.77;7.05;;;-1.70;99.90;;;;;;5029264;28;20107;-65
2023/11/30 05:45:18;;;;;;;19.75;7.40;;;-1.70;99.90;;;;;;5027697;28;20053;-66
2023/11/30 05:47:45;;;;;;;21.23;7.93;;;-1.70;99.90;;;;;;5027909;28;20053;-67
2023/11/30 05:50:12;;;;;;;14.07;7.60;;;-1.90;99.90;;;;;;5027662;28;20065;-67
2023/11/30 05:52:39;;;;;;;16.17;7.60;;;-2.00;99.90;;;;;;5027677;28;20054;-66
2023/11/30 05:55:07;;;;;;;22.25;8.35;;;-2.00;99.90;;;;;;5027184;28;20055;-66
2023/11/30 05:57:35;;;;;;;15.57;7.25;;;-2.00;99.90;;;;;;5027857;28;20053;-66
2023/11/30 06:00:03;;;;;;;23.67;8.40;;;-2.00;99.90;;;;;;5027331;28;20041;-66
2023/11/30 06:02:32;;;;;;;17.55;8.23;;;-2.00;99.90;;;;;;5025870;28;20060;-66
2023/11/30 06:04:59;;;;;;;17.33;9.02;;;-1.90;99.90;;;;;;5022183;28;20053;-66
2023/11/30 06:07:26;;;;;;;17.95;7.75;;;-1.90;99.90;;;;;;5009896;28;20136;-66
2023/11/30 06:09:53;;;;;;;21.58;9.07;;;-1.80;99.90;;;;;;5026567;28;20038;-66
2023/11/30 06:12:19;;;;;;;16.20;8.05;;;-1.90;99.90;;;;;;5026134;28;20073;-66
2023/11/30 06:14:46;;;;;;;19.52;8.50;;;-1.80;99.90;;;;;;5025124;28;20053;-66
2023/11/30 06:17:13;;;;;;;21.05;9.13;;;-1.00;99.90;;;;;;5026761;28;20053;-66
2023/11/30 06:19:40;;;;;;;15.40;8.40;;;-1.70;99.90;;;;;;4992954;28;20045;-66
2023/11/30 06:22:07;;;;;;;14.38;8.27;;;-1.70;99.90;;;;;;5014156;28;20554;-66
2023/11/30 06:24:34;;;;;;;20.13;7.85;;;-1.60;99.90;;;;;;5002550;28;20042;-67
2023/11/30 06:27:02;;;;;;;18.45;7.82;;;-1.60;99.90;;;;;;5007295;28;20120;-65
2023/11/30 06:29:31;;;;;;;17.70;7.82;;;-1.50;99.90;;;;;;5008965;28;20894;-66
2023/11/30 06:32:01;;;;;;;16.05;7.88;;;-1.60;99.90;;;;;;5026998;28;20053;-65
2023/11/30 06:34:32;;;;;;;13.50;7.63;;;-1.60;99.90;;;;;;5024904;28;20057;-65
2023/11/30 06:36:59;;;;;;;23.95;9.93;;;-1.70;99.90;;;;;;5021952;28;20493;-66
2023/11/30 06:39:26;;;;;;;16.35;9.43;;;-1.60;99.90;;;;;;5026762;28;20096;-66
2023/11/30 06:41:54;;;;;;;15.88;7.55;;;-1.60;99.90;;;;;;5018852;28;20137;-66
2023/11/30 06:44:20;;;;;;;16.15;8.15;;;-1.60;99.90;;;;;;5000294;28;20092;-66
2023/11/30 06:46:47;;;;;;;20.80;8.15;;;-1.40;99.90;;;;;;5007819;28;20463;-66
2023/11/30 06:49:14;;;;;;;23.67;10.35;;;-1.60;99.90;;;;;;5008508;28;20093;-67
2023/11/30 06:51:41;;;;;;;19.75;7.93;;;-1.50;99.90;;;;;;5023933;28;20193;-67
2023/11/30 06:54:08;;;;;;;19.00;8.10;;;-1.50;99.90;;;;;;5020416;28;20072;-67
2023/11/30 06:56:35;;;;;;;17.95;8.02;;;-1.50;99.90;;;;;;5024006;28;20053;-69
2023/11/30 06:59:02;;;;;;;20.33;8.10;;;-1.40;99.90;;;;;;5020672;28;20038;-67
2023/11/30 07:01:30;;;;;;;18.60;8.20;;;-1.40;99.90;;;;;;5027455;28;20053;-67
2023/11/30 07:03:57;;;;;;;18.05;8.75;;;-1.40;99.90;;;;;;5013916;28;20049;-67
2023/11/30 07:06:24;;;;;;;14.45;7.50;;;-1.30;99.90;;;;;;5020963;28;20045;-67
2023/11/30 07:08:51;;;;;;;22.08;8.27;;;-1.20;99.90;;;;;;5000118;28;20416;-67
2023/11/30 07:11:17;;;;;;;22.55;9.00;;;-1.10;99.90;;;;;;5028245;28;20045;-66
2023/11/30 07:13:44;;;;;;;29.33;9.63;;;-1.00;99.90;;;;;;5029063;28;20050;-66
2023/11/30 07:16:11;;;;;;;18.95;9.23;;;-0.90;99.90;;;;;;5023620;28;20064;-67
2023/11/30 07:18:38;;;;;;;26.13;9.70;;;-0.90;99.90;;;;;;5030003;28;20065;-67
2023/11/30 07:21:05;;;;;;;22.70;8.68;;;-0.80;99.90;;;;;;5006738;28;20456;-67
2023/11/30 07:23:32;;;;;;;21.17;9.82;;;-0.80;99.90;;;;;;5008416;28;20049;-67
2023/11/30 07:25:59;;;;;;;18.95;9.68;;;-0.80;99.90;;;;;;4999264;28;20053;-67
2023/11/30 07:28:26;;;;;;;18.35;9.35;;;-0.80;99.90;;;;;;5028232;28;20053;-67
2023/11/30 07:30:53;;;;;;;22.30;9.35;;;-0.80;99.90;;;;;;4999974;28;20418;-68
2023/11/30 07:33:20;;;;;;;18.40;9.50;;;-0.80;99.90;;;;;;5026953;28;20053;-63
2023/11/30 07:35:47;;;;;;;14.52;8.57;;;-0.80;99.90;;;;;;5029030;28;20076;-63
2023/11/30 07:38:15;;;;;;;18.33;8.13;;;-0.70;99.90;;;;;;5011331;28;20049;-66
2023/11/30 07:40:42;;;;;;;19.65;9.05;;;-0.70;99.90;;;;;;5029925;28;20493;-66
2023/11/30 07:43:09;;;;;;;22.05;9.68;;;-0.60;99.90;;;;;;5021470;28;20818;-66
2023/11/30 07:45:36;;;;;;;22.77;10.50;;;-0.60;99.90;;;;;;5027126;28;20049;-65
2023/11/30 07:48:03;;;;;;;26.02;11.05;;;-0.50;99.90;;;;;;5006652;28;20570;-65
2023/11/30 07:50:31;;;;;;;24.45;12.15;;;-0.50;99.90;;;;;;5022570;28;20370;-65
2023/11/30 07:52:58;;;;;;;25.60;12.02;;;-0.50;99.90;;;;;;5009408;28;20048;-65
2023/11/30 07:55:24;;;;;;;26.63;10.40;;;-0.40;99.90;;;;;;5019821;28;20056;-64
2023/11/30 07:57:51;;;;;;;28.15;11.63;;;-0.40;99.90;;;;;;5024601;28;20347;-65
2023/11/30 08:00:19;;;;;;;26.60;11.13;;;-0.30;99.90;;;;;;5006599;28;20054;-65
2023/11/30 08:02:45;;;;;;;28.98;12.68;;;-0.30;99.90;;;;;;5024398;28;20041;-63
2023/11/30 08:05:12;;;;;;;28.60;13.13;;;-0.30;99.90;;;;;;5019726;28;20084;-64
2023/11/30 08:07:39;;;;;;;35.70;14.35;;;-0.20;99.90;;;;;;5020191;28;20088;-63
2023/11/30 08:10:06;;;;;;;27.27;12.15;;;-0.20;99.90;;;;;;5019939;28;20620;-64
2023/11/30 08:12:34;;;;;;;23.95;11.35;;;-0.20;99.90;;;;;;5022928;28;20050;-64
2023/11/30 08:15:01;;;;;;;38.30;13.90;;;-0.20;99.90;;;;;;4990047;28;20670;-62
2023/11/30 08:17:28;;;;;;;38.80;15.23;;;-0.10;99.90;;;;;;5020602;28;20054;-63
2023/11/30 08:19:55;;;;;;;43.45;13.20;;;0.00;99.90;;;;;;5023787;28;20053;-63
2023/11/30 08:22:21;;;;;;;35.67;12.98;;;-0.10;99.90;;;;;;5010403;28;20041;-64
2023/11/30 08:24:48;;;;;;;35.67;12.52;;;0.10;99.90;;;;;;5021813;28;20049;-63
2023/11/30 08:27:15;;;;;;;38.08;14.30;;;0.00;99.90;;;;;;5008883;28;20041;-64
2023/11/30 08:29:42;;;;;;;30.92;12.50;;;0.50;99.90;;;;;;4995270;28;20266;-64
2023/11/30 08:32:10;;;;;;;38.63;13.80;;;0.10;99.90;;;;;;5011196;28;20049;-63
2023/11/30 08:34:37;;;;;;;40.45;15.70;;;0.10;99.90;;;;;;5020644;28;20053;-63
2023/11/30 08:37:04;;;;;;;34.72;13.82;;;0.10;99.90;;;;;;5005477;28;20398;-64
2023/11/30 08:39:31;;;;;;;33.47;13.45;;;0.10;99.90;;;;;;5022747;28;20756;-64
2023/11/30 08:41:58;;;;;;;32.40;13.65;;;0.10;99.90;;;;;;5025015;28;20091;-63
2023/11/30 08:44:25;;;;;;;31.00;14.45;;;0.10;99.90;;;;;;5024656;28;20049;-64
2023/11/30 08:46:52;;;;;;;30.73;12.10;;;0.10;99.90;;;;;;5021002;28;20108;-63
2023/11/30 08:49:19;;;;;;;32.63;13.35;;;0.10;99.90;;;;;;5005591;28;20061;-64
2023/11/30 08:51:46;;;;;;;25.73;11.73;;;0.30;99.90;;;;;;5026335;28;20046;-64
2023/11/30 08:54:13;;;;;;;34.55;14.20;;;0.20;99.90;;;;;;5025550;28;20060;-64
2023/11/30 08:56:40;;;;;;;25.05;11.45;;;0.20;99.90;;;;;;5023499;28;20165;-64
2023/11/30 08:59:07;;;;;;;27.77;12.57;;;0.30;99.90;;;;;;5021556;28;20049;-64
2023/11/30 09:01:36;;;;;;;31.98;12.63;;;0.30;99.90;;;;;;5016209;28;20471;-63
2023/11/30 09:04:04;;;;;;;29.85;12.57;;;0.30;99.90;;;;;;5020628;28;20049;-63
2023/11/30 09:06:33;;;;;;;27.48;13.43;;;0.40;99.90;;;;;;5023675;28;20078;-63
2023/11/30 09:09:01;;;;;;;32.42;13.18;;;0.40;99.90;;;;;;5018364;28;20046;-63
2023/11/30 09:11:30;;;;;;;34.83;14.25;;;0.40;99.90;;;;;;5018779;28;20131;-63
2023/11/30 09:13:57;;;;;;;29.73;13.48;;;0.50;99.90;;;;;;5024012;28;20050;-64
2023/11/30 09:16:25;;;;;;;28.27;12.02;;;0.50;99.90;;;;;;5023004;28;20049;-64
2023/11/30 09:18:54;;;;;;;24.60;12.02;;;0.60;99.90;;;;;;5023705;28;20064;-64
2023/11/30 09:21:21;;;;;;;38.55;15.52;;;0.50;99.90;;;;;;5021060;28;20042;-63
2023/11/30 09:23:49;;;;;;;29.80;13.80;;;0.50;99.90;;;;;;5004807;28;20045;-63
2023/11/30 09:26:20;;;;;;;31.40;13.73;;;0.50;99.90;;;;;;5025304;28;20049;-62
2023/11/30 09:28:47;;;;;;;28.50;13.77;;;0.60;99.90;;;;;;5019959;28;20076;-65
2023/11/30 09:31:13;;;;;;;33.30;13.40;;;0.60;99.90;;;;;;5024453;28;20042;-65
2023/11/30 09:33:41;;;;;;;26.05;12.32;;;0.60;99.90;;;;;;5020276;28;20081;-64
2023/11/30 09:36:09;;;;;;;27.63;12.70;;;0.50;99.90;;;;;;5018006;28;20475;-65
2023/11/30 09:38:36;;;;;;;27.75;12.45;;;0.60;99.90;;;;;;5024536;28;20137;-64
2023/11/30 09:41:05;;;;;;;27.50;13.50;;;0.60;99.90;;;;;;5022527;28;20076;-65
2023/11/30 09:43:33;;;;;;;37.60;14.38;;;0.60;99.90;;;;;;5019965;28;20145;-64
2023/11/30 09:45:59;;;;;;;32.20;14.63;;;0.60;99.90;;;;;;4999071;28;20041;-65
2023/11/30 09:48:29;;;;;;;30.30;13.60;;;0.60;99.90;;;;;;4998800;28;20470;-65
2023/11/30 09:50:56;;;;;;;34.35;14.55;;;0.60;99.90;;;;;;5009477;28;20504;-65
2023/11/30 09:53:23;;;;;;;32.10;13.90;;;0.60;99.90;;;;;;4991281;28;20104;-65
2023/11/30 09:55:50;;;;;;;36.17;15.10;;;0.70;99.90;;;;;;5025635;28;20440;-65
2023/11/30 09:58:17;;;;;;;39.25;17.08;;;0.70;99.90;;;;;;5026894;28;20107;-65
2023/11/30 10:00:44;;;;;;;35.38;13.95;;;0.60;99.90;;;;;;4993471;28;20620;-65
2023/11/30 10:03:11;;;;;;;31.75;15.00;;;0.60;99.90;;;;;;5026823;28;20061;-65
2023/11/30 10:05:38;;;;;;;34.13;14.80;;;0.60;99.90;;;;;;5027686;28;20134;-65
2023/11/30 10:08:05;;;;;;;32.17;14.85;;;0.60;99.90;;;;;;5007986;28;20061;-65
2023/11/30 10:10:32;;;;;;;35.22;15.98;;;0.60;99.90;;;;;;5027429;28;20033;-65
2023/11/30 10:12:59;;;;;;;29.65;12.73;;;0.60;99.90;;;;;;5027141;28;20332;-64
2023/11/30 10:15:25;;;;;;;36.50;14.52;;;0.70;99.90;;;;;;5028042;28;20037;-65
2023/11/30 10:17:52;;;;;;;36.80;15.98;;;0.70;99.90;;;;;;5009817;28;20060;-66
2023/11/30 10:20:19;;;;;;;35.00;12.88;;;0.60;99.90;;;;;;5027091;28;20053;-65
2023/11/30 10:22:46;;;;;;;26.88;12.80;;;0.60;99.90;;;;;;5027366;28;20041;-65
2023/11/30 10:25:13;;;;;;;32.53;11.93;;;0.60;99.90;;;;;;5010035;28;20057;-65
2023/11/30 10:27:41;;;;;;;32.00;14.15;;;0.70;99.90;;;;;;5027797;28;20068;-65
2023/11/30 10:30:10;;;;;;;30.60;13.55;;;0.70;99.90;;;;;;5029890;28;20050;-65
2023/11/30 10:32:39;;;;;;;35.80;14.50;;;0.70;99.90;;;;;;5031361;28;20512;-66
2023/11/30 10:35:06;;;;;;;37.80;15.43;;;0.70;99.90;;;;;;5031114;28;20351;-65
2023/11/30 10:37:40;;;;;;;31.40;14.55;;;0.70;99.90;;;;;;5013508;28;20057;-65
2023/11/30 10:40:09;;;;;;;39.22;17.70;;;0.70;99.90;;;;;;5031082;28;20049;-65
2023/11/30 10:42:36;;;;;;;35.97;16.05;;;0.60;99.90;;;;;;5013819;28;20073;-65
2023/11/30 10:45:06;;;;;;;32.60;14.80;;;0.60;99.90;;;;;;5013612;28;20045;-64
2023/11/30 10:47:34;;;;;;;42.33;17.27;;;0.60;99.90;;;;;;5013599;28;20049;-65
2023/11/30 10:50:05;;;;;;;46.40;15.70;;;0.60;99.90;;;;;;5029396;28;20053;-65
2023/11/30 10:52:32;;;;;;;35.35;15.90;;;0.60;99.90;;;;;;5031031;28;20045;-65
2023/11/30 10:55:09;;;;;;;47.30;19.17;;;0.70;99.90;;;;;;5012957;28;20451;-64
2023/11/30 10:57:39;;;;;;;45.35;16.92;;;0.70;99.90;;;;;;5031234;28;20053;-64
2023/11/30 11:00:10;;;;;;;36.00;16.95;;;0.70;99.90;;;;;;5030032;28;20052;-63
2023/11/30 11:02:44;;;;;;;50.33;17.20;;;0.80;99.90;;;;;;5030564;28;20476;-64
2023/11/30 11:05:14;;;;;;;42.35;17.35;;;0.90;99.90;;;;;;5030152;28;20515;-63
2023/11/30 11:07:49;;;;;;;38.42;17.35;;;0.90;99.90;;;;;;5030854;28;20041;-63
2023/11/30 11:10:23;;;;;;;40.65;16.40;;;1.00;99.90;;;;;;5030420;28;20046;-66
2023/11/30 11:12:50;;;;;;;45.03;17.27;;;1.00;99.90;;;;;;5030475;28;20354;-65
2023/11/30 11:15:21;;;;;;;44.45;17.15;;;0.90;99.90;;;;;;5030277;28;20060;-65
2023/11/30 11:17:50;;;;;;;39.80;17.00;;;1.00;99.90;;;;;;5013238;28;20049;-65
2023/11/30 11:20:26;;;;;;;42.42;19.45;;;1.10;99.90;;;;;;5030078;28;20052;-68
2023/11/30 11:23:13;;;;;;;36.97;17.58;;;1.10;99.90;;;;;;5030356;28;20041;-65
2023/11/30 11:25:41;;;;;;;44.95;17.42;;;1.20;99.90;;;;;;5030074;28;20349;-65
2023/11/30 11:28:07;;;;;;;42.92;18.60;;;1.20;99.90;;;;;;5030585;28;20052;-65
2023/11/30 11:30:41;;;;;;;43.45;17.63;;;1.20;99.90;;;;;;5030049;28;20049;-65
2023/11/30 11:33:08;;;;;;;45.00;19.00;;;1.10;99.90;;;;;;5011984;28;20496;-65
2023/11/30 11:35:35;;;;;;;39.63;18.92;;;1.10;99.90;;;;;;5030160;28;20056;-65
2023/11/30 11:38:02;;;;;;;33.70;17.05;;;1.20;99.90;;;;;;5029845;28;20045;-62
2023/11/30 11:40:29;;;;;;;34.70;15.25;;;1.10;99.90;;;;;;5022385;28;20480;-64
2023/11/30 11:42:56;;;;;;;40.10;19.05;;;1.20;99.90;;;;;;5029680;28;20045;-65
2023/11/30 11:45:23;;;;;;;35.90;16.20;;;1.20;99.90;;;;;;5012164;28;20072;-65
2023/11/30 11:47:51;;;;;;;44.70;17.98;;;1.20;99.90;;;;;;5029750;28;20076;-65
2023/11/30 11:50:18;;;;;;;44.33;17.67;;;1.30;99.90;;;;;;5011820;28;20315;-65
2023/11/30 11:52:45;;;;;;;41.30;17.83;;;1.40;99.90;;;;;;4995949;28;20057;-65
2023/11/30 11:55:13;;;;;;;37.42;17.30;;;1.50;99.90;;;;;;5028969;28;20099;-65
2023/11/30 11:57:41;;;;;;;38.75;16.30;;;1.50;99.90;;;;;;5029840;28;20056;-64
2023/11/30 12:00:10;;;;;;;37.05;16.60;;;1.60;99.90;;;;;;5012985;28;20111;-64
2023/11/30 12:02:37;;;;;;;38.45;17.70;;;1.70;99.90;;;;;;5029218;28;20069;-64
2023/11/30 12:05:14;;;;;;;34.35;14.43;;;1.70;99.90;;;;;;5016292;28;20330;-65
2023/11/30 12:07:51;;;;;;;39.60;17.33;;;1.80;99.90;;;;;;5029667;28;20049;-64
2023/11/30 12:10:43;;;;;;;42.45;15.65;;;1.90;99.90;;;;;;5030389;28;20083;-64
2023/11/30 12:13:13;;;;;;;34.80;15.60;;;2.00;99.90;;;;;;5028029;28;20049;-64
2023/11/30 12:15:40;;;;;;;40.53;14.63;;;2.10;99.90;;;;;;5030199;28;20077;-65
2023/11/30 12:18:07;;;;;;;56.90;24.08;;;2.10;99.90;;;;;;5009006;28;20114;-64
2023/11/30 12:20:35;;;;;;;39.92;18.25;;;2.20;99.90;;;;;;5012870;28;20053;-65
2023/11/30 12:23:02;;;;;;;39.90;17.23;;;2.20;99.90;;;;;;5011244;28;20045;-65
2023/11/30 12:25:28;;;;;;;36.63;17.27;;;2.30;99.90;;;;;;5029817;28;20059;-64
2023/11/30 12:27:55;;;;;;;31.38;15.98;;;2.30;99.90;;;;;;5029129;28;20064;-65
2023/11/30 12:30:23;;;;;;;35.08;15.77;;;2.30;99.90;;;;;;5011962;28;20045;-64
2023/11/30 12:32:50;;;;;;;42.20;16.98;;;2.40;99.90;;;;;;5029080;28;20069;-63
2023/11/30 12:35:17;;;;;;;32.28;15.13;;;2.40;99.90;;;;;;5029370;28;20068;-64
2023/11/30 12:37:44;;;;;;;35.33;16.38;;;2.50;99.90;;;;;;5028908;28;20053;-64